Time;durP1;ratioP1;P1;durP2;ratioP2;P2;SDS_P1;SDS_P2;PMS_P1;PMS_P2;Temp;Humidity;BMP_temperature;BMP_pressure;BME280_temperature;BME280_humidity;BME280_pressure;Samples;Min_cycle;Max_cycle;Signal;HPM_P1;HPM_P2
2022/06/15 00:01:25;;;;;;;1.80;1.55;;;;;;;18.12;58.32;95222.09;5071061;28;20595;-81
2022/06/15 00:03:51;;;;;;;2.45;1.60;;;;;;;17.66;57.75;95170.91;5062551;28;20712;-80
2022/06/15 00:06:20;;;;;;;4.65;1.77;;;;;;;18.07;59.71;95235.38;5071103;28;21046;-80
2022/06/15 00:08:51;;;;;;;18.65;2.17;;;;;;;17.89;58.16;95211.72;5071923;28;20275;-80
2022/06/15 00:11:23;;;;;;;4.50;2.17;;;;;;;18.02;57.85;95224.66;5074420;28;20182;-80
2022/06/15 00:13:49;;;;;;;4.78;1.95;;;;;;;17.91;57.29;95218.38;5074476;28;20163;-80
2022/06/15 00:16:15;;;;;;;2.13;1.90;;;;;;;17.75;58.20;95213.91;5074583;28;20250;-80
2022/06/15 00:18:44;;;;;;;7.90;1.63;;;;;;;17.70;58.71;95212.00;5074136;28;20177;-80
2022/06/15 00:21:10;;;;;;;6.25;1.95;;;;;;;17.82;58.91;95209.19;5074492;28;20175;-80
2022/06/15 00:23:35;;;;;;;1.60;1.50;;;;;;;17.40;59.62;95123.69;5074658;28;20193;-80
2022/06/15 00:26:01;;;;;;;2.55;1.90;;;;;;;17.90;58.57;95208.00;5074316;28;20661;-80
2022/06/15 00:28:27;;;;;;;2.10;1.80;;;;;;;17.83;58.51;95194.03;5056216;28;20179;-80
2022/06/15 00:30:53;;;;;;;3.78;1.85;;;;;;;17.84;59.74;95192.97;5074164;28;20175;-80
2022/06/15 00:33:21;;;;;;;2.63;1.70;;;;;;;17.91;59.33;95209.56;5074309;28;20661;-80
2022/06/15 00:35:59;;;;;;;4.55;2.05;;;;;;;17.86;59.23;95209.53;5074055;28;20213;-80
2022/06/15 00:38:31;;;;;;;3.65;2.10;;;;;;;17.85;59.40;95213.25;5074078;28;20174;-80
2022/06/15 00:40:58;;;;;;;5.25;2.40;;;;;;;17.76;58.29;95202.22;5056330;28;20174;-80
2022/06/15 00:43:43;;;;;;;4.70;2.10;;;;;;;17.08;58.02;95109.41;5065426;28;20631;-80
2022/06/15 00:46:30;;;;;;;3.72;2.15;;;;;;;17.66;58.89;95210.88;5073965;28;20701;-79
2022/06/15 00:49:03;;;;;;;4.38;1.50;;;;;;;17.40;58.80;95189.44;5066207;28;20205;-80
2022/06/15 00:51:29;;;;;;;5.25;1.95;;;;;;;17.58;58.69;95211.25;5073863;28;20194;-81
2022/06/15 00:53:57;;;;;;;2.85;1.58;;;;;;;17.30;58.92;95155.50;5073830;28;20663;-80
2022/06/15 00:56:25;;;;;;;4.22;1.90;;;;;;;17.31;58.56;95144.59;5055724;28;20676;-81
2022/06/15 00:58:55;;;;;;;3.30;1.88;;;;;;;17.29;59.56;95145.91;5073432;28;20300;-81
2022/06/15 01:01:21;;;;;;;2.60;1.40;;;;;;;17.44;59.47;95188.72;5073576;28;20173;-81
2022/06/15 01:03:49;;;;;;;5.30;1.88;;;;;;;17.61;60.32;95218.75;5055456;28;20195;-81
2022/06/15 01:06:48;;;;;;;5.65;1.80;;;;;;;17.54;60.23;95227.97;5073600;28;20252;-80
2022/06/15 01:09:39;;;;;;;8.05;2.33;;;;;;;17.49;61.35;95222.56;5060596;28;20226;-81
2022/06/15 01:12:14;;;;;;;4.60;1.92;;;;;;;17.42;59.63;95222.75;5068179;28;20191;-80
2022/06/15 01:14:54;;;;;;;6.78;2.10;;;;;;;17.26;58.20;95228.88;5073451;28;20242;-81
2022/06/15 01:17:37;;;;;;;2.95;2.40;;;;;;;17.25;60.42;95227.28;5073188;28;20253;-81
2022/06/15 01:20:13;;;;;;;4.40;2.95;;;;;;;17.30;60.40;95230.00;5064722;28;20166;-81
2022/06/15 01:23:16;;;;;;;2.92;2.47;;;;;;;17.32;59.30;95231.38;5055113;28;20205;-81
2022/06/15 01:25:56;;;;;;;5.72;2.33;;;;;;;17.41;60.09;95233.63;5049029;28;20178;-81
2022/06/15 01:28:27;;;;;;;21.75;12.52;;;;;;;17.39;60.99;95233.88;5072703;28;20166;-80
2022/06/15 01:31:00;;;;;;;14.93;7.65;;;;;;;17.35;60.05;95230.09;5054668;28;20181;-80
2022/06/15 01:33:31;;;;;;;10.30;5.65;;;;;;;17.37;61.84;95236.00;5072695;28;20165;-80
2022/06/15 01:36:13;;;;;;;14.60;8.25;;;;;;;17.35;62.21;95236.22;5072387;28;20182;-80
2022/06/15 01:39:00;;;;;;;11.70;6.28;;;;;;;17.35;62.72;95238.06;5072659;28;20206;-81
2022/06/15 01:41:37;;;;;;;4.80;3.60;;;;;;;17.29;62.11;95239.06;5054449;28;20186;-81
2022/06/15 01:44:13;;;;;;;6.35;3.28;;;;;;;16.91;61.74;95189.22;5072481;28;20277;-80
2022/06/15 01:46:46;;;;;;;10.43;4.68;;;;;;;17.06;62.58;95234.69;5072385;28;20178;-80
2022/06/15 01:49:26;;;;;;;4.50;3.17;;;;;;;17.03;63.16;95226.41;5072605;28;20186;-80
2022/06/15 01:51:52;;;;;;;4.65;1.80;;;;;;;17.10;62.12;95246.47;5072487;28;20178;-80
2022/06/15 01:54:27;;;;;;;5.22;2.63;;;;;;;16.96;63.73;95239.84;5072418;28;20245;-80
2022/06/15 01:56:55;;;;;;;2.42;1.90;;;;;;;16.52;62.82;95169.66;5073199;28;20151;-80
2022/06/15 01:59:32;;;;;;;3.28;2.50;;;;;;;16.84;63.65;95233.81;5072567;28;20257;-80
2022/06/15 02:02:16;;;;;;;23.25;11.45;;;;;;;16.80;64.99;95238.78;5064338;28;20245;-81
2022/06/15 02:05:04;;;;;;;14.52;8.05;;;;;;;16.77;65.05;95235.81;5072096;28;20642;-81
2022/06/15 02:08:10;;;;;;;24.63;14.38;;;;;;;16.75;64.89;95237.91;5027444;28;20237;-81
2022/06/15 02:10:53;;;;;;;20.95;11.50;;;;;;;16.72;65.41;95236.50;5063514;28;20655;-81
2022/06/15 02:13:30;;;;;;;22.73;14.02;;;;;;;16.60;65.19;95231.22;5072104;28;20168;-81
2022/06/15 02:16:07;;;;;;;13.00;7.72;;;;;;;16.52;65.37;95228.94;5045204;28;20780;-81
2022/06/15 02:18:36;;;;;;;14.97;8.13;;;;;;;16.41;66.10;95226.34;5071935;28;20166;-81
2022/06/15 02:21:08;;;;;;;4.03;3.00;;;;;;;16.38;66.79;95237.44;5072067;28;20173;-81
2022/06/15 02:23:37;;;;;;;9.50;6.15;;;;;;;16.36;67.18;95236.88;5072020;28;20218;-81
2022/06/15 02:26:04;;;;;;;7.35;4.82;;;;;;;15.93;67.54;95179.75;5072208;28;20645;-81
2022/06/15 02:28:34;;;;;;;5.03;2.97;;;;;;;15.99;67.83;95185.97;5054055;28;20564;-81
2022/06/15 02:31:00;;;;;;;8.05;4.60;;;;;;;16.17;68.04;95218.44;5063270;28;20679;-81
2022/06/15 02:33:27;;;;;;;4.65;2.92;;;;;;;16.25;68.09;95246.53;5072340;28;20679;-81
2022/06/15 02:35:54;;;;;;;4.65;2.75;;;;;;;16.17;68.17;95230.94;5072017;28;20170;-81
2022/06/15 02:38:21;;;;;;;4.15;2.67;;;;;;;15.93;68.40;95194.84;5071859;28;20676;-80
2022/06/15 02:40:46;;;;;;;8.45;4.43;;;;;;;15.84;68.66;95192.56;5053644;28;20553;-81
2022/06/15 02:43:14;;;;;;;5.20;3.30;;;;;;;15.68;68.83;95168.59;5071701;28;20193;-80
2022/06/15 02:45:41;;;;;;;10.05;6.15;;;;;;;16.03;69.47;95233.06;5053608;28;20623;-80
2022/06/15 02:48:09;;;;;;;19.23;12.27;;;;;;;16.00;69.75;95236.16;5071417;28;20166;-80
2022/06/15 02:50:45;;;;;;;14.47;7.90;;;;;;;15.96;69.75;95244.84;5053616;28;20178;-80
2022/06/15 02:53:14;;;;;;;3.58;2.63;;;;;;;15.54;69.40;95180.53;5071802;28;20177;-80
2022/06/15 02:55:41;;;;;;;12.73;5.73;;;;;;;15.56;70.30;95191.72;5071730;28;20166;-80
2022/06/15 02:58:09;;;;;;;12.70;7.73;;;;;;;15.62;71.03;95207.53;5071387;28;20177;-80
2022/06/15 03:00:35;;;;;;;8.67;2.97;;;;;;;15.71;70.37;95237.97;5071325;28;20185;-80
2022/06/15 03:03:01;;;;;;;7.30;3.10;;;;;;;15.66;70.55;95229.88;5071278;28;20227;-80
2022/06/15 03:05:26;;;;;;;5.67;3.27;;;;;;;15.19;70.95;95177.88;5071399;28;20559;-83
2022/06/15 03:07:52;;;;;;;3.97;2.77;;;;;;;15.14;71.62;95159.19;5071130;28;20210;-82
2022/06/15 03:10:17;;;;;;;6.40;3.50;;;;;;;15.14;71.37;95162.66;5071401;28;20174;-82
2022/06/15 03:12:43;;;;;;;6.17;3.50;;;;;;;15.05;71.62;95150.78;5053284;28;20174;-82
2022/06/15 03:15:10;;;;;;;8.40;3.37;;;;;;;15.20;72.04;95168.88;5071305;28;20186;-83
2022/06/15 03:17:36;;;;;;;6.00;2.80;;;;;;;15.63;71.59;95238.34;5053201;28;20163;-82
2022/06/15 03:20:02;;;;;;;4.93;2.97;;;;;;;15.38;71.55;95188.16;5071003;28;20174;-84
2022/06/15 03:22:27;;;;;;;10.40;2.90;;;;;;;15.40;71.56;95187.88;5071024;28;20204;-84
2022/06/15 03:24:53;;;;;;;7.10;3.27;;;;;;;15.59;71.58;95207.16;5071183;28;20697;-85
2022/06/15 03:27:18;;;;;;;9.13;2.93;;;;;;;15.53;71.24;95179.69;5071329;28;20622;-84
2022/06/15 03:29:45;;;;;;;6.60;3.00;;;;;;;15.66;69.43;95178.66;5071827;28;20607;-85
2022/06/15 03:32:15;;;;;;;3.75;3.00;;;;;;;16.11;70.29;95243.31;5071876;28;20157;-84
2022/06/15 03:34:41;;;;;;;7.80;3.20;;;;;;;15.81;69.33;95185.09;5071272;28;20192;-85
2022/06/15 03:37:06;;;;;;;4.50;2.70;;;;;;;16.02;69.73;95199.56;5070903;28;20198;-83
2022/06/15 03:39:32;;;;;;;6.13;2.70;;;;;;;16.42;69.85;95239.41;5071046;28;20217;-83
2022/06/15 03:42:17;;;;;;;5.55;2.53;;;;;;;16.69;70.46;95250.28;5071105;28;20253;-83
2022/06/15 03:44:44;;;;;;;13.82;5.60;;;;;;;16.66;68.71;95218.88;5070640;28;20276;-81
2022/06/15 03:47:19;;;;;;;9.77;5.50;;;;;;;16.83;68.12;95221.53;5074650;28;20232;-81
2022/06/15 03:49:47;;;;;;;23.10;12.70;;;;;;;17.10;65.86;95238.50;5074638;28;20166;-81
2022/06/15 03:52:12;;;;;;;8.27;5.20;;;;;;;17.23;65.14;95240.81;5074306;28;20174;-81
2022/06/15 03:54:38;;;;;;;8.55;4.38;;;;;;;17.56;65.49;95261.28;5056603;28;20177;-81
2022/06/15 03:57:04;;;;;;;12.82;5.75;;;;;;;17.59;64.67;95244.81;5074155;28;20173;-80
2022/06/15 03:59:30;;;;;;;11.63;6.55;;;;;;;17.89;64.51;95267.66;5074283;28;20642;-80
2022/06/15 04:01:56;;;;;;;4.63;2.60;;;;;;;17.83;63.96;95228.66;5074464;28;20637;-80
2022/06/15 04:04:22;;;;;;;5.65;3.40;;;;;;;18.24;65.00;95260.13;5056307;28;20186;-80
2022/06/15 04:06:49;;;;;;;3.22;2.65;;;;;;;18.42;64.04;95261.66;5074153;28;20171;-81
2022/06/15 04:09:20;;;;;;;6.15;3.00;;;;;;;18.53;62.67;95252.69;5074171;28;20222;-81
2022/06/15 04:12:01;;;;;;;5.30;2.95;;;;;;;18.73;62.42;95254.81;5074379;28;20654;-80
2022/06/15 04:14:27;;;;;;;5.07;2.67;;;;;;;18.77;61.53;95239.88;5072437;28;20162;-81
2022/06/15 04:16:56;;;;;;;5.65;2.00;;;;;;;19.01;59.31;95251.06;5073697;28;20166;-81
2022/06/15 04:19:23;;;;;;;3.30;2.45;;;;;;;19.06;61.87;95235.91;5056163;28;20253;-80
2022/06/15 04:21:48;;;;;;;9.93;2.72;;;;;;;19.33;61.00;95257.22;5074015;28;20245;-81
2022/06/15 04:24:15;;;;;;;9.93;3.38;;;;;;;19.55;60.41;95259.78;5074104;28;20269;-81
2022/06/15 04:26:42;;;;;;;9.25;2.05;;;;;;;19.76;59.72;95266.91;5055744;28;20190;-80
2022/06/15 04:29:08;;;;;;;3.58;2.10;;;;;;;19.95;59.80;95256.59;5074215;28;20992;-81
2022/06/15 04:31:34;;;;;;;3.50;2.15;;;;;;;19.95;57.85;95244.03;5073758;28;20228;-81
2022/06/15 04:34:00;;;;;;;9.77;3.70;;;;;;;20.30;58.72;95277.34;5073632;28;20220;-80
2022/06/15 04:36:28;;;;;;;14.00;8.60;;;;;;;20.41;57.85;95268.31;5078792;28;20243;-81
2022/06/15 04:38:54;;;;;;;4.00;2.88;;;;;;;20.55;58.41;95276.66;5071465;28;20220;-81
2022/06/15 04:41:19;;;;;;;18.38;10.60;;;;;;;20.46;57.79;95233.56;5071998;28;20174;-81
2022/06/15 04:43:45;;;;;;;10.50;5.70;;;;;;;20.46;57.85;95208.69;5073506;28;20288;-80
2022/06/15 04:46:11;;;;;;;7.18;5.35;;;;;;;21.02;58.12;95265.78;5055655;28;20265;-82
2022/06/15 04:48:37;;;;;;;2.95;2.28;;;;;;;21.04;56.90;95234.19;5055213;28;20166;-82
2022/06/15 04:51:17;;;;;;;6.03;3.53;;;;;;;21.51;56.27;95278.72;5073538;28;20646;-82
2022/06/15 04:53:43;;;;;;;14.57;7.85;;;;;;;21.75;55.75;95280.56;5069622;28;20169;-81
2022/06/15 04:56:09;;;;;;;16.02;9.95;;;;;;;21.90;54.44;95266.34;5068192;28;20547;-80
2022/06/15 04:58:35;;;;;;;13.43;5.90;;;;;;;21.87;51.98;95209.78;5072583;28;20654;-80
2022/06/15 05:01:01;;;;;;;9.18;2.00;;;;;;;22.22;53.01;95220.44;5071180;28;20174;-80
2022/06/15 05:03:26;;;;;;;13.95;5.38;;;;;;;22.75;51.29;95258.28;5048127;28;20782;-81
2022/06/15 05:05:56;;;;;;;2.65;2.28;;;;;;;23.14;51.42;95280.63;5071869;28;20181;-81
2022/06/15 05:08:21;;;;;;;16.30;7.07;;;;;;;23.56;51.52;95287.31;5072854;28;20240;-81
2022/06/15 05:10:47;;;;;;;13.20;6.63;;;;;;;24.06;49.87;95288.75;5073152;28;20189;-80
2022/06/15 05:13:12;;;;;;;5.35;3.08;;;;;;;24.51;48.21;95297.44;5073112;28;20162;-81
2022/06/15 05:15:38;;;;;;;9.90;4.07;;;;;;;24.92;48.96;95290.47;5072993;28;20181;-81
2022/06/15 05:18:07;;;;;;;6.00;3.03;;;;;;;25.38;47.75;95295.22;5073036;28;20174;-80
2022/06/15 05:20:38;;;;;;;3.80;2.70;;;;;;;25.75;46.11;95289.81;5072925;28;20212;-81
2022/06/15 05:23:03;;;;;;;4.82;2.55;;;;;;;26.22;44.31;95304.88;5070098;28;20277;-80
2022/06/15 05:25:29;;;;;;;3.17;1.95;;;;;;;26.58;44.45;95307.72;5072505;28;20312;-81
2022/06/15 05:27:55;;;;;;;3.88;2.03;;;;;;;26.61;42.62;95239.59;5070237;28;20174;-81
2022/06/15 05:30:20;;;;;;;10.93;2.95;;;;;;;27.40;42.74;95301.41;5072538;28;20179;-81
2022/06/15 05:32:46;;;;;;;4.68;2.45;;;;;;;27.39;40.51;95278.97;5072877;28;20296;-83
2022/06/15 05:35:11;;;;;;;6.28;2.45;;;;;;;27.62;39.42;95308.78;5054360;28;20170;-81
2022/06/15 05:37:37;;;;;;;3.90;2.47;;;;;;;27.59;39.86;95299.34;5072301;28;20182;-83
2022/06/15 05:40:03;;;;;;;11.45;5.05;;;;;;;27.61;38.69;95288.22;5072234;28;20166;-80
2022/06/15 05:42:29;;;;;;;12.38;7.10;;;;;;;27.78;39.88;95291.06;5053665;28;20182;-80
2022/06/15 05:44:55;;;;;;;9.57;4.55;;;;;;;27.91;39.06;95309.16;5069296;28;20190;-81
2022/06/15 05:47:21;;;;;;;7.60;4.88;;;;;;;28.06;40.72;95310.66;5053256;28;20174;-80
2022/06/15 05:49:47;;;;;;;7.43;2.28;;;;;;;28.34;40.09;95303.19;5053239;28;20186;-80
2022/06/15 05:52:12;;;;;;;6.97;2.40;;;;;;;28.28;39.80;95263.81;5053712;28;20177;-80
2022/06/15 05:54:38;;;;;;;149.88;23.40;;;;;;;28.43;37.48;95257.97;5071920;28;20253;-80
2022/06/15 05:57:24;;;;;;;1999.90;999.90;;;;;;;28.51;38.74;95312.19;5053985;28;20170;-78
2022/06/15 05:59:51;;;;;;;3.40;2.00;;;;;;;28.47;38.06;95296.84;5071248;28;20723;-78
2022/06/15 06:02:19;;;;;;;3.88;2.17;;;;;;;28.45;38.37;95316.13;5071764;28;20178;-78
2022/06/15 06:04:44;;;;;;;3.60;1.90;;;;;;;28.45;37.91;95304.53;5071456;28;20186;-78
2022/06/15 06:07:10;;;;;;;3.20;2.22;;;;;;;28.36;36.38;95292.84;5070464;28;20173;-79
2022/06/15 06:09:36;;;;;;;4.32;1.80;;;;;;;28.50;37.70;95317.91;5071301;28;20212;-78
2022/06/15 06:12:02;;;;;;;5.50;2.17;;;;;;;28.54;38.36;95316.97;5071739;28;20198;-79
2022/06/15 06:14:28;;;;;;;4.93;1.88;;;;;;;28.63;37.54;95324.38;5071972;28;20186;-78
2022/06/15 06:16:53;;;;;;;5.07;2.25;;;;;;;28.60;37.66;95327.69;5071771;28;20178;-78
2022/06/15 06:19:19;;;;;;;4.43;1.73;;;;;;;28.51;37.50;95324.94;5072074;28;20174;-78
2022/06/15 06:21:44;;;;;;;3.17;1.50;;;;;;;28.35;37.84;95310.22;5072097;28;20265;-79
2022/06/15 06:24:11;;;;;;;4.28;1.85;;;;;;;28.29;38.71;95308.72;5071253;28;20681;-79
2022/06/15 06:26:36;;;;;;;3.13;1.90;;;;;;;28.56;38.20;95337.53;5072294;28;20235;-79
2022/06/15 06:29:04;;;;;;;10.20;2.22;;;;;;;28.58;38.14;95327.19;5072002;28;20170;-78
2022/06/15 06:31:29;;;;;;;6.35;2.25;;;;;;;28.59;36.35;95323.38;5071757;28;20213;-79
2022/06/15 06:33:56;;;;;;;4.28;1.92;;;;;;;28.58;37.78;95321.78;5071997;28;20175;-79
2022/06/15 06:36:39;;;;;;;2.42;1.65;;;;;;;28.62;36.13;95326.28;5072115;28;20581;-78
2022/06/15 06:39:11;;;;;;;3.42;1.70;;;;;;;28.56;38.07;95319.38;5070132;28;20201;-79
2022/06/15 06:41:37;;;;;;;3.35;1.92;;;;;;;28.41;37.44;95328.72;5071610;28;20227;-78
2022/06/15 06:44:04;;;;;;;2.83;1.77;;;;;;;28.10;35.48;95317.88;5071353;28;20259;-77
2022/06/15 06:46:31;;;;;;;2.13;1.77;;;;;;;27.90;38.09;95321.06;5071346;28;20599;-78
2022/06/15 06:48:58;;;;;;;4.30;1.75;;;;;;;28.01;37.46;95306.19;5071549;28;20261;-78
2022/06/15 06:51:23;;;;;;;3.13;1.92;;;;;;;28.13;37.88;95314.53;5053781;28;20182;-77
2022/06/15 06:53:49;;;;;;;4.43;1.60;;;;;;;28.33;39.91;95309.72;5071196;28;20181;-78
2022/06/15 06:56:14;;;;;;;3.40;1.98;;;;;;;28.42;38.31;95313.28;5071300;28;20197;-77
2022/06/15 06:58:40;;;;;;;4.72;2.00;;;;;;;28.29;37.18;95297.91;5070954;28;20619;-76
2022/06/15 07:01:06;;;;;;;3.70;2.05;;;;;;;28.41;38.42;95312.47;5070734;28;20587;-78
2022/06/15 07:03:31;;;;;;;4.40;2.42;;;;;;;28.57;39.31;95317.47;5070972;28;20677;-78
2022/06/15 07:06:08;;;;;;;10.23;2.22;;;;;;;28.57;37.47;95317.47;5071065;28;20273;-77
2022/06/15 07:08:37;;;;;;;4.97;1.83;;;;;;;28.68;39.52;95319.59;5070495;28;20236;-77
2022/06/15 07:11:08;;;;;;;3.60;2.13;;;;;;;28.58;36.86;95275.72;5070931;28;20188;-78
2022/06/15 07:13:34;;;;;;;2.63;1.65;;;;;;;28.91;37.00;95323.03;5071096;28;20657;-78
2022/06/15 07:16:06;;;;;;;5.18;2.20;;;;;;;29.00;37.26;95326.56;5071100;28;20169;-78
2022/06/15 07:18:31;;;;;;;4.20;1.77;;;;;;;29.18;38.76;95320.06;5071599;28;20175;-78
2022/06/15 07:21:05;;;;;;;5.75;2.10;;;;;;;29.19;35.41;95329.78;5075682;28;20193;-78
2022/06/15 07:23:31;;;;;;;4.97;2.40;;;;;;;29.13;36.96;95324.84;5075284;28;20669;-79
2022/06/15 07:25:56;;;;;;;9.82;2.40;;;;;;;29.02;37.09;95316.19;5075108;28;20197;-78
2022/06/15 07:28:22;;;;;;;4.30;2.40;;;;;;;29.14;36.57;95318.31;5075114;28;20557;-78
2022/06/15 07:30:48;;;;;;;4.13;2.00;;;;;;;28.97;35.11;95332.63;5075292;28;20649;-77
2022/06/15 07:33:15;;;;;;;3.35;1.92;;;;;;;28.74;38.89;95326.47;5075993;28;20175;-78
2022/06/15 07:35:41;;;;;;;2.55;1.90;;;;;;;28.58;38.13;95300.91;5056655;28;20174;-78
2022/06/15 07:38:07;;;;;;;5.22;2.30;;;;;;;28.54;35.91;95325.09;5074829;28;20179;-77
2022/06/15 07:40:33;;;;;;;8.75;2.00;;;;;;;28.22;39.05;95311.09;5074405;28;20240;-77
2022/06/15 07:42:59;;;;;;;3.05;1.88;;;;;;;28.10;36.72;95334.13;5074564;28;20285;-77
2022/06/15 07:45:26;;;;;;;11.07;2.45;;;;;;;28.00;40.51;95320.84;5053964;28;20174;-78
2022/06/15 07:50:38;;;;;;;2.45;1.60;;;;;;;28.21;40.21;95325.75;5072885;28;20198;-78
2022/06/15 07:53:06;;;;;;;4.75;1.50;;;;;;;28.22;38.04;95327.34;5080370;28;20236;-77
2022/06/15 07:55:35;;;;;;;3.30;1.60;;;;;;;28.11;38.22;95329.47;5075136;28;20698;-78
2022/06/15 07:58:02;;;;;;;3.53;1.65;;;;;;;27.72;38.26;95325.56;5074831;28;20182;-79
2022/06/15 08:00:28;;;;;;;4.97;1.33;;;;;;;26.64;37.63;95320.03;5074142;28;20269;-78
2022/06/15 08:02:54;;;;;;;2.85;1.50;;;;;;;26.19;40.66;95316.28;5074207;28;20166;-78
2022/06/15 08:05:23;;;;;;;4.35;2.05;;;;;;;26.88;40.56;95337.94;5073626;28;20196;-78
2022/06/15 08:07:49;;;;;;;2.38;1.85;;;;;;;27.13;42.47;95315.03;5073941;28;20226;-79
2022/06/15 08:10:18;;;;;;;4.85;1.95;;;;;;;27.51;42.51;95327.13;5073969;28;20190;-78
2022/06/15 08:12:45;;;;;;;9.93;2.35;;;;;;;27.83;39.04;95326.13;5074533;28;20183;-79
2022/06/15 08:15:11;;;;;;;1.63;1.42;;;;;;;27.98;40.46;95325.75;5072197;28;20179;-79
2022/06/15 08:17:40;;;;;;;3.88;2.10;;;;;;;28.11;38.73;95327.56;5079739;28;20944;-79
2022/06/15 08:20:09;;;;;;;4.65;1.60;;;;;;;28.27;41.48;95327.22;5074407;28;20244;-78
2022/06/15 08:22:39;;;;;;;6.13;1.80;;;;;;;28.49;39.47;95322.53;5074016;28;20178;-78
2022/06/15 08:25:08;;;;;;;7.35;2.45;;;;;;;28.62;38.54;95326.28;5068260;28;20170;-78
2022/06/15 08:27:36;;;;;;;3.67;1.63;;;;;;;28.51;37.69;95297.84;5075761;28;20182;-78
2022/06/15 08:30:08;;;;;;;2.53;1.60;;;;;;;28.72;39.56;95325.16;5073207;28;20170;-78
2022/06/15 08:32:34;;;;;;;10.75;5.05;;;;;;;28.67;39.46;95307.16;5083242;28;20603;-78
2022/06/15 08:34:59;;;;;;;2.75;1.70;;;;;;;28.03;37.35;95268.75;5073791;28;20185;-79
2022/06/15 08:37:25;;;;;;;2.05;1.73;;;;;;;28.21;41.91;95314.91;5073595;28;20174;-79
2022/06/15 08:39:50;;;;;;;4.72;1.80;;;;;;;28.19;37.68;95322.56;5077244;28;20556;-79
2022/06/15 08:42:43;;;;;;;4.70;1.50;;;;;;;28.06;40.83;95329.63;5073598;28;20178;-78
2022/06/15 08:45:31;;;;;;;3.28;1.88;;;;;;;28.24;40.10;95327.84;5055116;28;20565;-78
2022/06/15 08:48:09;;;;;;;3.63;1.70;;;;;;;28.54;40.63;95324.31;5061031;28;20187;-78
2022/06/15 08:50:41;;;;;;;3.78;1.73;;;;;;;28.68;37.75;95333.13;5080992;28;20953;-78
2022/06/15 08:53:15;;;;;;;2.88;1.70;;;;;;;28.72;39.65;95317.84;5073975;28;20174;-78
2022/06/15 08:55:46;;;;;;;3.17;2.30;;;;;;;28.78;38.08;95326.66;5073313;28;20170;-77
2022/06/15 08:58:16;;;;;;;3.88;1.88;;;;;;;28.68;36.80;95322.31;5073413;28;20186;-78
2022/06/15 09:00:43;;;;;;;8.48;1.70;;;;;;;28.43;38.41;95307.53;5067308;28;20582;-78
2022/06/15 09:03:33;;;;;;;9.38;1.70;;;;;;;27.82;39.26;95323.72;5073684;28;20194;-78
2022/06/15 09:06:21;;;;;;;3.92;1.83;;;;;;;27.34;41.03;95314.25;5073811;28;20955;-78
2022/06/15 09:09:10;;;;;;;5.85;1.55;;;;;;;27.52;40.16;95314.38;5073756;28;20218;-78
2022/06/15 09:14:57;;;;;;;3.10;1.67;;;;;;;27.58;42.64;95300.50;5072411;28;20220;-78
2022/06/15 09:17:26;;;;;;;2.88;2.58;;;;;;;27.62;41.03;95314.19;5072825;28;20182;-77
2022/06/15 09:20:20;;;;;;;11.80;6.97;;;;;;;27.57;39.97;95309.72;5071850;28;20587;-77
2022/06/15 09:23:02;;;;;;;2.55;1.85;;;;;;;27.27;41.01;95303.06;5058040;28;20802;-77
2022/06/15 09:25:43;;;;;;;4.07;1.80;;;;;;;27.04;37.88;95304.13;5072042;28;20194;-78
2022/06/15 09:28:20;;;;;;;2.22;1.17;;;;;;;26.74;41.52;95312.81;5068705;28;20182;-77
2022/06/15 09:30:46;;;;;;;3.92;1.90;;;;;;;26.43;40.27;95301.84;5072300;28;20162;-78
2022/06/15 09:33:29;;;;;;;2.15;1.95;;;;;;;26.39;46.19;95317.81;5072753;28;20668;-78
2022/06/15 09:36:10;;;;;;;4.30;2.13;;;;;;;26.52;42.96;95313.53;5072907;28;20182;-79
2022/06/15 09:38:37;;;;;;;11.85;2.05;;;;;;;26.84;44.87;95326.13;5072841;28;20217;-79
2022/06/15 09:41:18;;;;;;;4.10;1.70;;;;;;;26.96;46.95;95312.94;5072927;28;20158;-78
2022/06/15 09:43:50;;;;;;;3.72;1.67;;;;;;;27.01;45.72;95313.63;5055210;28;20271;-78
2022/06/15 09:46:28;;;;;;;5.10;1.90;;;;;;;27.01;43.58;95310.13;5073332;28;20181;-78
2022/06/15 09:49:02;;;;;;;3.00;1.67;;;;;;;26.57;45.86;95311.53;5072969;28;20243;-78
2022/06/15 09:51:43;;;;;;;2.45;1.40;;;;;;;26.37;44.92;95290.34;5063032;28;20555;-79
2022/06/15 09:54:22;;;;;;;2.10;1.50;;;;;;;26.48;44.46;95312.53;5071798;28;20606;-78
2022/06/15 09:56:50;;;;;;;3.10;2.00;;;;;;;26.41;42.15;95307.53;5069937;28;20173;-78
2022/06/15 09:59:20;;;;;;;5.50;1.55;;;;;;;26.37;43.41;95300.34;5052913;28;20328;-78
2022/06/15 10:01:47;;;;;;;2.03;1.77;;;;;;;26.18;44.20;95282.28;5072443;28;20167;-78
2022/06/15 10:04:28;;;;;;;2.47;1.70;;;;;;;26.21;44.08;95294.38;5073384;28;20289;-79
2022/06/15 10:06:59;;;;;;;2.10;1.83;;;;;;;26.04;41.94;95302.25;5072667;28;20954;-78
2022/06/15 10:09:29;;;;;;;4.13;1.80;;;;;;;25.82;47.12;95303.72;5073250;28;20223;-78
2022/06/15 10:15:13;;;;;;;4.85;2.05;;;;;;;25.88;45.24;95297.13;5079489;28;20684;-79
2022/06/15 10:17:44;;;;;;;3.88;2.20;;;;;;;25.80;46.32;95305.09;5072852;28;20167;-79
2022/06/15 10:20:30;;;;;;;2.38;1.67;;;;;;;25.84;47.22;95298.81;5072854;28;20236;-79
2022/06/15 10:22:58;;;;;;;4.95;2.47;;;;;;;25.65;43.94;95295.34;5072366;28;20185;-79
2022/06/15 10:25:27;;;;;;;2.20;2.00;;;;;;;25.71;43.28;95296.88;5071969;28;20185;-79
2022/06/15 10:28:13;;;;;;;2.08;1.80;;;;;;;25.65;46.90;95306.16;5072169;28;20186;-79
2022/06/15 10:30:53;;;;;;;2.17;1.90;;;;;;;25.71;46.69;95296.88;5072264;28;20617;-78
2022/06/15 10:33:19;;;;;;;8.43;1.70;;;;;;;25.62;44.12;95277.06;5070011;28;20177;-78
2022/06/15 10:35:57;;;;;;;3.30;2.00;;;;;;;25.49;46.31;95272.41;5072109;28;20175;-78
2022/06/15 10:38:23;;;;;;;3.15;1.70;;;;;;;25.10;44.44;95270.00;5072791;28;20257;-79
2022/06/15 10:40:57;;;;;;;3.67;1.83;;;;;;;25.37;48.13;95290.91;5071928;28;20243;-78
2022/06/15 10:43:32;;;;;;;3.97;1.90;;;;;;;25.32;46.58;95274.81;5069553;28;20190;-78
2022/06/15 10:46:02;;;;;;;2.97;1.95;;;;;;;25.45;42.70;95282.97;5070958;28;20196;-79
2022/06/15 10:48:50;;;;;;;3.80;1.80;;;;;;;25.45;44.71;95288.34;5071284;28;20205;-78
2022/06/15 10:51:28;;;;;;;2.53;2.10;;;;;;;25.43;46.67;95268.97;5071303;28;20585;-79
2022/06/15 10:54:19;;;;;;;2.08;1.70;;;;;;;25.58;47.57;95278.72;5069555;28;20657;-79
2022/06/15 11:02:21;;;;;;;6.22;1.73;;;;;;;25.69;47.45;95279.38;5079232;28;20186;-79
2022/06/15 11:04:46;;;;;;;4.22;2.05;;;;;;;25.77;47.67;95278.72;5054319;28;20222;-79
2022/06/15 11:07:24;;;;;;;2.90;2.30;;;;;;;25.64;42.15;95277.56;5082776;28;20247;-79
2022/06/15 11:09:56;;;;;;;2.22;2.03;;;;;;;25.42;44.55;95269.28;5077626;28;20642;-78
2022/06/15 11:12:47;;;;;;;7.60;2.50;;;;;;;25.25;45.95;95269.81;5077069;28;20711;-79
2022/06/15 11:15:13;;;;;;;4.97;2.10;;;;;;;25.24;46.63;95268.22;5065104;28;20209;-82
2022/06/15 11:18:05;;;;;;;3.83;1.70;;;;;;;25.19;46.71;95252.91;5072810;28;20648;-83
2022/06/15 11:20:53;;;;;;;4.03;1.98;;;;;;;25.08;45.21;95270.31;5072753;28;20216;-82
2022/06/15 11:23:30;;;;;;;2.83;1.95;;;;;;;25.16;44.78;95261.59;5066123;28;20893;-82
2022/06/15 11:26:51;;;;;;;1.90;1.63;;;;;;;25.28;46.24;95261.13;5067524;28;20184;-81
2022/06/15 11:28:50;;;;;;;3.50;2.40;;;;;;;25.03;46.17;95243.44;5066850;28;20189;-80
2022/06/15 11:31:17;;;;;;;5.03;1.98;;;;;;;25.09;45.68;95266.53;5050751;28;20661;-82
2022/06/15 11:33:52;;;;;;;2.67;1.90;;;;;;;25.15;48.63;95259.97;5069196;28;20705;-81
2022/06/15 11:36:28;;;;;;;4.85;1.85;;;;;;;25.39;48.70;95259.06;5050217;28;20684;-80
2022/06/15 11:39:13;;;;;;;3.78;1.98;;;;;;;25.66;49.40;95261.09;5068805;28;20231;-80
2022/06/15 11:41:46;;;;;;;5.63;2.60;;;;;;;25.81;46.51;95261.63;5068403;28;20189;-79
2022/06/15 11:44:33;;;;;;;3.85;1.70;;;;;;;25.96;48.21;95252.44;5069068;28;20213;-79
2022/06/15 11:47:29;;;;;;;6.63;1.85;;;;;;;26.02;45.81;95256.69;5069285;28;20685;-81
2022/06/15 11:50:15;;;;;;;8.77;3.20;;;;;;;26.08;48.12;95246.59;5067425;28;20260;-81
2022/06/15 11:52:50;;;;;;;6.07;1.92;;;;;;;25.91;45.97;95223.69;5070647;28;20714;-79
2022/06/15 11:55:31;;;;;;;2.03;1.67;;;;;;;26.06;46.20;95248.78;5070712;28;20555;-79
2022/06/15 11:58:23;;;;;;;4.13;2.05;;;;;;;25.98;47.74;95250.25;5070741;28;20607;-79
2022/06/15 12:01:00;;;;;;;4.95;2.33;;;;;;;25.81;46.21;95245.44;5068824;28;20179;-79
2022/06/15 12:03:58;;;;;;;6.07;1.92;;;;;;;25.52;44.40;95244.81;5071822;28;21017;-79
2022/06/15 12:06:27;;;;;;;2.00;1.70;;;;;;;25.36;45.76;95244.28;5072048;28;20253;-79